Time;durP1;ratioP1;P1;durP2;ratioP2;P2;SDS_P1;SDS_P2;PMS_P1;PMS_P2;Temp;Humidity;BMP_temperature;BMP_pressure;BME280_temperature;BME280_humidity;BME280_pressure;Samples;Min_cycle;Max_cycle;Signal;HPM_P1;HPM_P2
2022/06/15 00:02:06;;;;;;;7.20;3.70;;;;;;;23.18;56.71;100259.75;5049501;28;20285;-61
2022/06/15 00:04:32;;;;;;;6.53;3.80;;;;;;;23.18;56.82;100256.06;5050590;28;20418;-61
2022/06/15 00:06:58;;;;;;;5.83;4.13;;;;;;;23.17;56.41;100255.19;5050755;28;20198;-61
2022/06/15 00:09:23;;;;;;;5.53;3.80;;;;;;;23.16;56.58;100267.97;5050243;28;20462;-61
2022/06/15 00:11:48;;;;;;;7.20;3.47;;;;;;;23.16;56.52;100258.47;5050516;28;20167;-61
2022/06/15 00:14:21;;;;;;;5.47;3.80;;;;;;;23.16;56.89;100258.47;5049241;28;20235;-61
2022/06/15 00:16:46;;;;;;;6.00;4.17;;;;;;;23.16;56.92;100264.25;5054141;28;20179;-61
2022/06/15 00:19:11;;;;;;;5.40;3.70;;;;;;;23.17;56.63;100254.38;5033375;28;20463;-61
2022/06/15 00:21:37;;;;;;;9.53;4.00;;;;;;;23.15;56.78;100246.16;5029408;28;20275;-61
2022/06/15 00:24:03;;;;;;;5.33;3.93;;;;;;;23.15;56.34;100251.91;5029009;28;20569;-61
2022/06/15 00:26:28;;;;;;;5.40;4.10;;;;;;;23.14;56.40;100256.00;5029279;28;20183;-61
2022/06/15 00:28:54;;;;;;;5.77;3.87;;;;;;;23.15;56.61;100251.91;5030784;28;20173;-61
2022/06/15 00:31:19;;;;;;;7.07;3.60;;;;;;;23.15;56.32;100251.09;5045158;28;20183;-60
2022/06/15 00:33:45;;;;;;;6.77;3.73;;;;;;;23.14;56.66;100253.13;5049370;28;20168;-60
2022/06/15 00:36:12;;;;;;;5.17;3.73;;;;;;;23.15;56.35;100251.09;5050450;28;20217;-60
2022/06/15 00:38:38;;;;;;;5.93;3.43;;;;;;;23.15;56.74;100239.56;5050454;28;20594;-60
2022/06/15 00:41:04;;;;;;;6.40;4.37;;;;;;;23.14;56.60;100244.50;5050437;28;20466;-60
2022/06/15 00:43:50;;;;;;;6.60;4.17;;;;;;;23.14;56.49;100241.59;5049207;28;20425;-60
2022/06/15 00:46:22;;;;;;;6.43;4.00;;;;;;;23.15;56.19;100245.31;5050078;28;20879;-60
2022/06/15 00:48:53;;;;;;;6.33;4.30;;;;;;;23.14;56.52;100235.84;5049233;28;20415;-60
2022/06/15 00:51:18;;;;;;;6.63;3.97;;;;;;;23.13;56.64;100234.22;5043139;28;20973;-60
2022/06/15 00:53:45;;;;;;;5.53;3.90;;;;;;;23.13;56.73;100231.31;5053033;28;20430;-60
2022/06/15 00:56:10;;;;;;;6.80;4.13;;;;;;;23.13;56.52;100237.09;5051522;28;20172;-60
2022/06/15 00:58:37;;;;;;;4.60;3.53;;;;;;;23.14;56.49;100232.16;5053316;28;20433;-60
2022/06/15 01:01:04;;;;;;;6.80;4.20;;;;;;;23.13;56.51;100228.44;5051711;28;20195;-60
2022/06/15 01:03:30;;;;;;;7.13;4.00;;;;;;;23.13;56.73;100231.31;5052608;28;20425;-60
2022/06/15 01:06:12;;;;;;;5.00;3.63;;;;;;;23.11;56.14;100225.16;5051363;28;20433;-61
2022/06/15 01:08:47;;;;;;;5.90;3.87;;;;;;;23.13;56.15;100219.81;5051277;28;20220;-61
2022/06/15 01:11:24;;;;;;;6.33;4.00;;;;;;;23.13;56.27;100230.53;5035247;28;20956;-60
2022/06/15 01:14:05;;;;;;;6.30;4.03;;;;;;;23.11;56.13;100228.06;5053812;28;20424;-60
2022/06/15 01:17:02;;;;;;;5.37;3.40;;;;;;;23.11;56.63;100227.22;5055299;28;20416;-60
2022/06/15 01:19:58;;;;;;;5.07;3.50;;;;;;;23.10;55.80;100234.22;5073761;28;20453;-60
2022/06/15 01:22:30;;;;;;;6.40;4.27;;;;;;;23.10;56.11;100231.34;5046467;28;20422;-60
2022/06/15 01:25:14;;;;;;;6.33;4.23;;;;;;;23.08;56.07;100231.75;5053796;28;20836;-60
2022/06/15 01:28:12;;;;;;;5.60;3.77;;;;;;;23.07;56.02;100230.13;5052545;28;20905;-60
2022/06/15 01:30:50;;;;;;;5.47;3.90;;;;;;;23.07;56.37;100230.13;5052514;28;20430;-60
2022/06/15 01:33:21;;;;;;;4.90;3.70;;;;;;;23.08;56.39;100228.88;5052327;28;20500;-60
2022/06/15 01:36:13;;;;;;;5.27;3.37;;;;;;;23.06;56.16;100225.59;5053346;28;20480;-60
2022/06/15 01:39:00;;;;;;;5.73;3.90;;;;;;;23.07;56.10;100226.41;5036753;28;20415;-60
2022/06/15 01:41:38;;;;;;;5.17;3.73;;;;;;;23.05;56.22;100223.13;5052198;28;20452;-60
2022/06/15 01:44:13;;;;;;;5.70;3.60;;;;;;;23.06;56.28;100231.34;5052126;28;20448;-60
2022/06/15 01:46:40;;;;;;;8.40;3.40;;;;;;;23.05;56.22;100223.97;5052062;28;20406;-60
2022/06/15 01:49:06;;;;;;;6.90;3.70;;;;;;;23.05;56.29;100228.88;5053134;28;20410;-60
2022/06/15 01:51:34;;;;;;;4.60;3.63;;;;;;;23.05;56.22;100229.72;5041121;28;20458;-60
2022/06/15 01:54:29;;;;;;;7.23;3.97;;;;;;;23.06;56.65;100231.34;5032056;28;20407;-60
2022/06/15 01:56:55;;;;;;;5.93;3.30;;;;;;;23.06;56.49;100231.34;5033149;28;20445;-60
2022/06/15 01:59:46;;;;;;;6.23;3.40;;;;;;;23.06;56.33;100237.09;5038957;28;20811;-60
2022/06/15 02:02:13;;;;;;;5.83;3.63;;;;;;;23.06;55.98;100231.34;5051617;28;20799;-60
2022/06/15 02:05:05;;;;;;;5.07;3.50;;;;;;;23.05;55.89;100232.59;5051848;28;20799;-60
2022/06/15 02:07:36;;;;;;;4.93;3.87;;;;;;;23.04;56.29;100233.00;5050291;28;20846;-60
2022/06/15 02:10:22;;;;;;;5.10;3.70;;;;;;;23.04;56.17;100233.84;5051115;28;20528;-60
2022/06/15 02:12:54;;;;;;;4.70;3.17;;;;;;;23.04;55.99;100236.72;5050005;28;20421;-60
2022/06/15 02:15:20;;;;;;;7.77;3.90;;;;;;;23.03;55.98;100232.16;5051191;28;20415;-60
2022/06/15 02:17:48;;;;;;;6.60;4.07;;;;;;;23.03;56.36;100240.00;5062872;28;20510;-60
2022/06/15 02:20:20;;;;;;;6.93;3.83;;;;;;;23.03;56.11;100231.38;5067324;28;20507;-60
2022/06/15 02:22:49;;;;;;;7.37;3.50;;;;;;;23.04;56.08;100227.25;5050161;28;20410;-60
2022/06/15 02:25:16;;;;;;;5.37;3.27;;;;;;;23.02;56.20;100227.66;5047869;28;20441;-60
2022/06/15 02:27:41;;;;;;;5.37;3.60;;;;;;;23.02;56.27;100223.97;5050994;28;20414;-60
2022/06/15 02:30:12;;;;;;;3.90;3.10;;;;;;;23.02;55.80;100218.22;5051147;28;20421;-60
2022/06/15 02:32:38;;;;;;;6.53;3.90;;;;;;;23.02;55.99;100233.41;5051010;28;20190;-60
2022/06/15 02:35:04;;;;;;;7.10;3.67;;;;;;;23.02;56.09;100226.84;5051113;28;20430;-60
2022/06/15 02:37:30;;;;;;;5.77;3.80;;;;;;;23.01;55.97;100226.00;5051985;28;20195;-60
2022/06/15 02:39:55;;;;;;;6.40;3.37;;;;;;;23.01;56.33;100226.00;5052227;28;20454;-60
2022/06/15 02:42:27;;;;;;;5.63;3.73;;;;;;;23.00;56.01;100215.72;5052160;28;20180;-60
2022/06/15 02:44:53;;;;;;;5.60;3.63;;;;;;;22.99;56.05;100219.84;5052351;28;20167;-60
2022/06/15 02:47:18;;;;;;;4.97;3.30;;;;;;;23.00;55.94;100215.72;5050890;28;20442;-60
2022/06/15 02:49:44;;;;;;;4.90;3.67;;;;;;;22.99;55.84;100216.97;5050640;28;20415;-60
2022/06/15 02:52:09;;;;;;;7.87;3.97;;;;;;;23.00;56.01;100224.38;5033407;28;20204;-60
2022/06/15 02:54:38;;;;;;;6.60;3.77;;;;;;;22.99;56.28;100219.84;5032234;28;20180;-60
2022/06/15 02:57:07;;;;;;;4.97;3.63;;;;;;;22.99;55.84;100225.63;5014511;28;20220;-60
2022/06/15 02:59:32;;;;;;;9.00;4.20;;;;;;;22.99;56.37;100219.03;5031817;28;20475;-60
2022/06/15 03:01:58;;;;;;;5.30;3.50;;;;;;;22.99;56.13;100221.91;5046974;28;20441;-60
2022/06/15 03:04:23;;;;;;;5.30;3.33;;;;;;;22.98;56.01;100228.91;5042506;28;20207;-60
2022/06/15 03:06:49;;;;;;;4.40;3.57;;;;;;;22.97;55.84;100227.25;5030630;28;20207;-60
2022/06/15 03:09:14;;;;;;;4.80;3.50;;;;;;;22.97;56.04;100228.06;5030515;28;20224;-60
2022/06/15 03:11:40;;;;;;;5.40;3.60;;;;;;;22.97;55.11;100233.03;5030736;28;20628;-60
2022/06/15 03:14:06;;;;;;;5.50;3.03;;;;;;;22.94;55.73;100220.28;5036268;28;20226;-60
2022/06/15 03:16:31;;;;;;;6.70;3.43;;;;;;;22.96;55.80;100226.44;5050584;28;20164;-60
2022/06/15 03:18:57;;;;;;;4.40;3.33;;;;;;;22.95;55.94;100224.78;5051196;28;20448;-60
2022/06/15 03:21:22;;;;;;;7.33;3.07;;;;;;;22.95;55.89;100218.19;5039554;28;20192;-60
2022/06/15 03:23:48;;;;;;;4.60;3.00;;;;;;;22.95;55.99;100224.78;5030007;28;20615;-60
2022/06/15 03:26:13;;;;;;;7.20;4.03;;;;;;;22.94;55.53;100223.16;5029335;28;20200;-60
2022/06/15 03:28:39;;;;;;;7.10;4.00;;;;;;;22.93;55.20;100235.88;5028492;28;20246;-60
2022/06/15 03:31:05;;;;;;;3.80;3.00;;;;;;;22.93;55.48;100233.00;5029579;28;20211;-60
2022/06/15 03:33:30;;;;;;;5.23;3.20;;;;;;;22.92;55.54;100230.56;5029318;28;20674;-60
2022/06/15 03:35:57;;;;;;;4.67;3.17;;;;;;;22.92;55.56;100233.44;5031090;28;20181;-60
2022/06/15 03:38:23;;;;;;;6.00;3.37;;;;;;;22.91;54.82;100235.47;5030968;28;20263;-60
2022/06/15 03:40:48;;;;;;;4.60;3.63;;;;;;;22.91;55.40;100241.25;5031215;28;20820;-60
2022/06/15 03:43:14;;;;;;;4.03;2.80;;;;;;;22.92;55.65;100237.13;5034626;28;20573;-60
2022/06/15 03:45:42;;;;;;;5.60;3.60;;;;;;;22.91;55.08;100244.13;5050917;28;20583;-60
2022/06/15 03:48:07;;;;;;;4.80;3.57;;;;;;;22.91;55.43;100238.34;5050730;28;20179;-60
2022/06/15 03:50:33;;;;;;;5.50;3.40;;;;;;;22.90;55.25;100233.84;5046292;28;20449;-60
2022/06/15 03:52:59;;;;;;;3.50;2.90;;;;;;;22.90;55.14;100242.47;5028836;28;20582;-60
2022/06/15 03:55:24;;;;;;;4.73;3.40;;;;;;;22.90;55.12;100242.47;5029272;28;20227;-60
2022/06/15 03:57:50;;;;;;;5.30;3.00;;;;;;;22.90;55.37;100239.59;5029332;28;20423;-60
2022/06/15 04:00:18;;;;;;;5.93;3.70;;;;;;;22.90;55.46;100251.13;5030154;28;20208;-60
2022/06/15 04:02:45;;;;;;;3.93;3.20;;;;;;;22.90;55.53;100251.13;5030690;28;20184;-60
2022/06/15 04:05:15;;;;;;;4.97;2.93;;;;;;;22.90;55.25;100253.16;5050499;28;20414;-60
2022/06/15 04:10:25;;;;;;;4.50;3.40;;;;;;;22.88;55.09;100259.31;5050977;28;20452;-60
2022/06/15 04:12:50;;;;;;;6.17;3.27;;;;;;;22.88;54.81;100259.31;5050560;28;20422;-60
2022/06/15 04:15:16;;;;;;;5.07;3.60;;;;;;;22.87;55.35;100263.44;5050410;28;20175;-60
2022/06/15 04:17:42;;;;;;;9.07;3.80;;;;;;;22.87;55.20;100257.69;5059992;28;20186;-60
2022/06/15 04:22:53;;;;;;;4.73;3.30;;;;;;;22.87;55.11;100263.44;5055585;28;20421;-60
2022/06/15 04:25:18;;;;;;;6.67;3.80;;;;;;;22.87;55.29;100263.44;5030922;28;20407;-60
2022/06/15 04:27:44;;;;;;;6.73;3.30;;;;;;;22.88;55.15;100264.28;5034573;28;20172;-60
2022/06/15 04:30:11;;;;;;;6.50;3.90;;;;;;;22.88;54.82;100270.03;5035094;28;20171;-60
2022/06/15 04:32:37;;;;;;;5.10;3.53;;;;;;;22.88;54.97;100273.72;5048518;28;20211;-60
2022/06/15 04:35:02;;;;;;;5.20;2.93;;;;;;;22.88;55.42;100264.28;5054930;28;20964;-60
2022/06/15 04:37:28;;;;;;;4.13;3.20;;;;;;;22.88;55.12;100267.97;5054116;28;20194;-60
2022/06/15 04:39:53;;;;;;;5.60;3.40;;;;;;;22.92;55.27;100270.88;5052965;28;20203;-60
2022/06/15 04:42:19;;;;;;;5.40;3.20;;;;;;;22.95;55.12;100270.03;5052897;28;20650;-60
2022/06/15 04:44:44;;;;;;;5.27;3.30;;;;;;;22.97;55.19;100277.00;5053526;28;20187;-60
2022/06/15 04:47:10;;;;;;;4.40;3.83;;;;;;;22.98;55.24;100283.59;5052899;28;20172;-60
2022/06/15 04:49:35;;;;;;;6.50;3.20;;;;;;;23.00;55.13;100284.00;5052948;28;20168;-60
2022/06/15 04:52:01;;;;;;;6.93;3.30;;;;;;;23.00;55.18;100279.09;5052702;28;20176;-60
2022/06/15 04:54:26;;;;;;;5.70;3.33;;;;;;;23.01;55.21;100280.72;5034331;28;20187;-60
2022/06/15 04:56:52;;;;;;;4.80;3.47;;;;;;;23.03;55.01;100284.00;5034234;28;20176;-60
2022/06/15 04:59:17;;;;;;;6.20;3.47;;;;;;;23.03;54.81;100278.25;5034269;28;20670;-60
2022/06/15 05:01:43;;;;;;;5.40;3.97;;;;;;;23.05;55.26;100277.84;5048140;28;20183;-60
2022/06/15 05:04:08;;;;;;;7.80;3.80;;;;;;;23.05;55.31;100284.44;5044318;28;20173;-60
2022/06/15 05:06:38;;;;;;;5.37;3.43;;;;;;;23.05;55.16;100287.31;5034333;28;20721;-60
2022/06/15 05:09:05;;;;;;;6.23;3.97;;;;;;;23.04;54.81;100279.91;5046215;28;20224;-60
2022/06/15 05:11:30;;;;;;;3.93;3.10;;;;;;;23.04;54.93;100287.72;5033721;28;20418;-60
2022/06/15 05:13:56;;;;;;;5.83;3.77;;;;;;;23.04;55.20;100285.69;5033312;28;20417;-61
2022/06/15 05:16:22;;;;;;;5.63;3.33;;;;;;;23.05;54.96;100284.44;5036699;28;20518;-60
2022/06/15 05:18:47;;;;;;;6.07;3.10;;;;;;;23.06;55.11;100291.84;5063790;28;20247;-60
2022/06/15 05:21:13;;;;;;;6.23;3.80;;;;;;;23.07;55.21;100289.75;5042470;28;20457;-60
2022/06/15 05:23:38;;;;;;;4.70;3.20;;;;;;;23.08;55.27;100292.22;5042597;28;20209;-60
2022/06/15 05:26:03;;;;;;;4.10;3.20;;;;;;;23.11;54.98;100290.59;5032305;28;20177;-60
2022/06/15 05:28:29;;;;;;;5.57;3.27;;;;;;;23.12;55.50;100295.94;5034159;28;20543;-60
2022/06/15 05:31:16;;;;;;;5.87;3.23;;;;;;;23.15;54.97;100295.13;5033503;28;20179;-60
2022/06/15 05:33:42;;;;;;;7.07;3.33;;;;;;;23.16;54.74;100285.25;5033516;28;20192;-60
2022/06/15 05:36:11;;;;;;;5.00;2.90;;;;;;;23.17;54.76;100288.94;5032235;28;20442;-60
2022/06/15 05:38:40;;;;;;;8.10;3.17;;;;;;;23.15;54.75;100285.66;5032543;28;20208;-61
2022/06/15 05:41:05;;;;;;;4.20;3.10;;;;;;;23.14;54.76;100284.81;5032012;28;20455;-60
2022/06/15 05:43:34;;;;;;;6.73;3.10;;;;;;;23.14;54.54;100284.81;5038190;28;20770;-60
2022/06/15 05:45:59;;;;;;;8.40;3.57;;;;;;;23.13;54.78;100283.19;5053287;28;20258;-61
2022/06/15 05:48:25;;;;;;;5.40;3.53;;;;;;;23.11;55.21;100291.41;5051751;28;20492;-60
2022/06/15 05:50:50;;;;;;;6.90;3.50;;;;;;;23.13;54.93;100293.88;5045690;28;20233;-60
2022/06/15 05:53:15;;;;;;;8.00;5.00;;;;;;;23.26;56.54;100295.13;5042028;28;20226;-60
2022/06/15 05:55:41;;;;;;;13.10;8.30;;;;;;;23.54;57.12;100297.97;5036057;28;20685;-61
2022/06/15 05:58:06;;;;;;;27.40;11.47;;;;;;;23.68;56.78;100292.97;5036835;28;20255;-61
2022/06/15 06:00:32;;;;;;;14.50;7.00;;;;;;;23.41;54.20;100297.59;5031255;28;20209;-61
2022/06/15 06:02:58;;;;;;;14.90;6.63;;;;;;;23.31;54.25;100289.78;5031983;28;20183;-61
2022/06/15 06:05:23;;;;;;;13.00;6.53;;;;;;;23.33;54.46;100298.03;5032719;28;20643;-62
2022/06/15 06:07:49;;;;;;;12.00;6.90;;;;;;;23.32;54.78;100293.47;5023509;28;20187;-60
2022/06/15 06:10:15;;;;;;;14.20;7.10;;;;;;;23.23;53.25;100293.91;5050464;28;20183;-60
2022/06/15 06:12:40;;;;;;;9.40;5.97;;;;;;;23.27;53.74;100288.13;5051799;28;20167;-61
2022/06/15 06:15:06;;;;;;;12.47;6.03;;;;;;;23.24;53.63;100301.28;5051467;28;20160;-61
2022/06/15 06:17:32;;;;;;;9.03;6.70;;;;;;;23.23;53.64;100296.78;5048619;28;20393;-61
2022/06/15 06:19:57;;;;;;;13.63;6.27;;;;;;;23.23;53.19;100298.84;5043260;28;20466;-61
2022/06/15 06:22:23;;;;;;;9.60;6.03;;;;;;;23.22;53.13;100300.06;5045640;28;20199;-60
2022/06/15 06:24:48;;;;;;;8.57;5.17;;;;;;;23.21;53.34;100293.50;5031157;28;20651;-60
2022/06/15 06:27:14;;;;;;;12.63;6.93;;;;;;;23.16;54.47;100299.66;5039577;28;20202;-61
2022/06/15 06:29:40;;;;;;;10.27;6.37;;;;;;;23.15;54.06;100298.00;5040206;28;20630;-61
2022/06/15 06:32:06;;;;;;;10.73;6.60;;;;;;;23.17;54.55;100292.63;5049100;28;20399;-61
2022/06/15 06:34:31;;;;;;;16.63;6.60;;;;;;;23.19;54.46;100301.72;5049111;28;20206;-61
2022/06/15 06:36:57;;;;;;;13.00;6.30;;;;;;;23.19;54.64;100298.03;5028744;28;20176;-60
2022/06/15 06:39:27;;;;;;;11.87;6.10;;;;;;;23.16;54.10;100296.75;5032226;28;20647;-60
2022/06/15 06:41:53;;;;;;;7.20;5.03;;;;;;;23.19;54.55;100304.59;5047709;28;20414;-60
2022/06/15 06:44:19;;;;;;;9.43;5.13;;;;;;;23.19;54.75;100304.59;5050048;28;20940;-60
2022/06/15 06:46:45;;;;;;;13.23;5.37;;;;;;;23.19;54.54;100313.22;5050567;28;20417;-60
2022/06/15 06:49:11;;;;;;;10.53;5.27;;;;;;;23.18;54.83;100308.72;5049266;28;20184;-60
2022/06/15 06:51:37;;;;;;;11.07;6.03;;;;;;;23.16;54.45;100310.31;5035116;28;20431;-60
2022/06/15 06:54:03;;;;;;;12.20;6.03;;;;;;;23.15;54.70;100309.53;5041052;28;20183;-60
2022/06/15 06:56:29;;;;;;;8.93;5.23;;;;;;;23.17;54.11;100304.16;5049940;28;20607;-60
2022/06/15 06:58:54;;;;;;;9.43;5.57;;;;;;;23.21;54.91;100316.53;5040522;28;20437;-60
2022/06/15 07:01:19;;;;;;;13.40;5.40;;;;;;;23.26;55.69;100312.41;5028961;28;20200;-60
2022/06/15 07:03:45;;;;;;;9.00;4.83;;;;;;;23.22;55.27;100311.59;5031319;28;20177;-60
2022/06/15 07:06:10;;;;;;;13.50;5.43;;;;;;;23.19;55.58;100309.56;5041107;28;20219;-60
2022/06/15 07:08:39;;;;;;;9.17;5.63;;;;;;;23.22;56.51;100314.47;5040581;28;20782;-60
2022/06/15 07:11:16;;;;;;;12.73;5.67;;;;;;;23.21;57.28;100319.44;5030026;28;20540;-60
2022/06/15 07:13:42;;;;;;;10.60;5.70;;;;;;;23.21;58.38;100315.72;5035529;28;20895;-60
2022/06/15 07:16:11;;;;;;;16.50;6.20;;;;;;;23.23;59.00;100319.03;5030408;28;20485;-60
2022/06/15 07:18:36;;;;;;;10.00;6.33;;;;;;;23.23;57.48;100325.59;5040730;28;20534;-61
2022/06/15 07:21:07;;;;;;;12.03;7.13;;;;;;;23.23;57.42;100327.66;5056687;28;20452;-61
2022/06/15 07:23:33;;;;;;;11.80;6.73;;;;;;;23.23;57.50;100327.66;5052980;28;20183;-61
2022/06/15 07:26:05;;;;;;;15.23;6.97;;;;;;;23.18;56.64;100326.00;5034022;28;20553;-60
2022/06/15 07:28:31;;;;;;;13.87;6.67;;;;;;;23.13;57.05;100329.25;5059836;28;20182;-61
2022/06/15 07:30:56;;;;;;;10.07;6.60;;;;;;;23.10;56.75;100338.75;5068077;28;20832;-61
2022/06/15 07:33:22;;;;;;;12.60;6.17;;;;;;;23.11;57.09;100337.50;5070260;28;20172;-61
2022/06/15 07:35:47;;;;;;;11.20;6.80;;;;;;;23.08;56.75;100338.31;5065930;28;20183;-61
2022/06/15 07:38:13;;;;;;;11.67;6.60;;;;;;;23.09;56.08;100339.94;5069659;28;20201;-61
2022/06/15 07:40:38;;;;;;;10.43;6.40;;;;;;;23.09;56.63;100342.03;5049157;28;20238;-61
2022/06/15 07:43:04;;;;;;;10.90;6.63;;;;;;;23.08;56.25;100331.75;5029757;28;20184;-61
2022/06/15 07:45:29;;;;;;;9.97;6.67;;;;;;;23.09;56.96;100327.63;5029615;28;20239;-61
2022/06/15 07:50:40;;;;;;;11.67;6.60;;;;;;;23.17;57.13;100337.88;5041036;28;20551;-62
2022/06/15 07:53:06;;;;;;;17.83;6.10;;;;;;;23.21;57.56;100333.81;5030160;28;20924;-62
2022/06/15 07:55:34;;;;;;;9.00;5.63;;;;;;;23.22;57.58;100332.59;5029619;28;20786;-62
2022/06/15 07:58:00;;;;;;;12.57;5.33;;;;;;;23.23;57.53;100333.44;5030136;28;20631;-62
2022/06/15 08:00:26;;;;;;;9.33;5.33;;;;;;;23.22;57.51;100337.50;5041322;28;20949;-62
2022/06/15 08:02:52;;;;;;;9.17;5.40;;;;;;;23.22;57.89;100338.34;5030935;28;20192;-62
2022/06/15 08:05:17;;;;;;;11.17;5.60;;;;;;;23.22;57.61;100335.47;5029745;28;20435;-62
2022/06/15 08:07:44;;;;;;;10.00;5.20;;;;;;;23.23;57.85;100330.53;5029236;28;20279;-62
2022/06/15 08:10:11;;;;;;;15.93;5.70;;;;;;;23.23;57.44;100330.53;5028450;28;20161;-62
2022/06/15 08:12:37;;;;;;;8.97;5.10;;;;;;;23.24;57.72;100332.97;5029467;28;20446;-62
2022/06/15 08:15:03;;;;;;;11.67;5.73;;;;;;;23.23;57.89;100331.34;5028570;28;20420;-62
2022/06/15 08:17:30;;;;;;;8.70;4.93;;;;;;;23.23;57.67;100325.59;5029487;28;20181;-62
2022/06/15 08:20:03;;;;;;;8.67;5.63;;;;;;;23.23;57.53;100328.47;5029179;28;20538;-62
2022/06/15 08:22:28;;;;;;;7.60;4.53;;;;;;;23.22;57.73;100329.72;5011820;28;20874;-62
2022/06/15 08:24:54;;;;;;;8.47;4.90;;;;;;;23.23;57.61;100331.34;5029153;28;20423;-62
2022/06/15 08:27:20;;;;;;;5.20;4.23;;;;;;;23.23;57.64;100334.22;5056174;28;20656;-62
2022/06/15 08:29:46;;;;;;;7.80;5.20;;;;;;;23.24;57.84;100330.09;5067894;28;20863;-62
2022/06/15 08:32:12;;;;;;;13.13;5.20;;;;;;;23.25;57.89;100333.81;5069247;28;20500;-62
2022/06/15 08:34:38;;;;;;;8.73;4.80;;;;;;;23.26;58.04;100332.56;5069057;28;20401;-62
2022/06/15 08:37:06;;;;;;;9.90;5.23;;;;;;;23.25;57.63;100328.91;5069599;28;20209;-62
2022/06/15 08:39:31;;;;;;;6.57;4.40;;;;;;;23.25;57.56;100334.66;5067843;28;20453;-62
2022/06/15 08:42:20;;;;;;;7.93;5.97;;;;;;;23.25;57.58;100330.94;5068992;28;20806;-62
2022/06/15 08:44:54;;;;;;;8.10;4.60;;;;;;;23.25;57.71;100328.06;5062442;28;20183;-62
2022/06/15 08:47:52;;;;;;;12.03;5.03;;;;;;;23.25;57.65;100331.78;5049048;28;20456;-62
2022/06/15 08:50:38;;;;;;;9.30;5.17;;;;;;;23.24;58.05;100335.88;5038912;28;20411;-62
2022/06/15 08:53:13;;;;;;;9.97;4.40;;;;;;;23.24;57.79;100323.53;5034614;28;20426;-62
2022/06/15 08:55:44;;;;;;;6.77;4.60;;;;;;;23.24;57.99;100323.53;5048798;28;20472;-62
2022/06/15 08:58:25;;;;;;;8.00;5.00;;;;;;;23.25;57.70;100328.91;5048990;28;20887;-61
2022/06/15 09:00:53;;;;;;;9.33;4.80;;;;;;;23.27;57.33;100320.66;5047745;28;20478;-61
2022/06/15 09:03:22;;;;;;;9.33;6.00;;;;;;;23.27;57.31;100329.28;5031230;28;20445;-61
2022/06/15 09:05:54;;;;;;;7.73;5.60;;;;;;;23.26;57.59;100333.41;5047553;28;20945;-61
2022/06/15 09:08:39;;;;;;;8.30;5.00;;;;;;;23.26;57.47;100321.88;5048930;28;20985;-62
2022/06/15 09:11:11;;;;;;;8.03;5.30;;;;;;;23.27;57.12;100320.66;5049758;28;20453;-62
2022/06/15 09:14:11;;;;;;;7.93;5.43;;;;;;;23.28;57.02;100322.28;5052571;28;20517;-62
2022/06/15 09:16:43;;;;;;;7.67;4.77;;;;;;;23.26;57.37;100321.88;5042418;28;20449;-62
2022/06/15 09:19:33;;;;;;;9.90;5.50;;;;;;;23.27;57.18;100328.47;5054174;28;20492;-62
2022/06/15 09:22:23;;;;;;;7.67;4.37;;;;;;;23.28;57.60;100328.06;5052250;28;20438;-62
2022/06/15 09:24:52;;;;;;;6.90;4.77;;;;;;;23.29;57.50;100326.81;5039297;28;20956;-62
2022/06/15 09:27:22;;;;;;;7.13;4.90;;;;;;;23.28;57.74;100324.38;5049643;28;20425;-62
2022/06/15 09:29:52;;;;;;;9.53;4.47;;;;;;;23.29;56.63;100315.28;5070633;28;20826;-62
2022/06/15 09:32:26;;;;;;;6.73;4.50;;;;;;;23.30;57.00;100316.13;5054122;28;20398;-62
2022/06/15 09:34:55;;;;;;;9.03;4.83;;;;;;;23.29;56.89;100326.81;5054745;28;20491;-62
2022/06/15 09:37:22;;;;;;;7.80;4.87;;;;;;;23.30;57.09;100322.72;5049361;28;20497;-62
2022/06/15 09:39:47;;;;;;;9.13;4.70;;;;;;;23.29;57.26;100318.16;5035071;28;20458;-62
2022/06/15 09:42:43;;;;;;;9.73;4.60;;;;;;;23.30;57.23;100328.47;5033710;28;20826;-62
2022/06/15 09:45:19;;;;;;;8.43;4.67;;;;;;;23.29;57.20;100321.03;5031893;28;20191;-62
2022/06/15 09:48:10;;;;;;;8.30;4.77;;;;;;;23.30;57.18;100325.59;5031992;28;20712;-62
2022/06/15 09:51:06;;;;;;;7.77;4.90;;;;;;;23.31;57.11;100314.88;5031935;28;20468;-62
2022/06/15 09:54:00;;;;;;;8.33;5.37;;;;;;;23.31;56.88;100323.53;5033277;28;20421;-62
2022/06/15 09:56:25;;;;;;;7.20;4.47;;;;;;;23.31;56.92;100323.53;5050797;28;20414;-62
2022/06/15 09:59:12;;;;;;;8.93;5.10;;;;;;;23.29;57.29;100315.28;5053117;28;20488;-62
2022/06/15 10:01:41;;;;;;;8.00;4.30;;;;;;;23.28;57.16;100316.53;5049669;28;20214;-62
2022/06/15 10:04:12;;;;;;;7.03;4.60;;;;;;;23.28;57.36;100310.75;5033950;28;20406;-62
2022/06/15 10:06:51;;;;;;;7.80;4.40;;;;;;;23.29;57.28;100311.59;5033153;28;20858;-62
2022/06/15 10:09:17;;;;;;;6.40;4.57;;;;;;;23.30;57.23;100310.34;5049604;28;20897;-62
2022/06/15 10:11:45;;;;;;;8.90;5.07;;;;;;;23.29;57.29;100311.59;5029494;28;20423;-62
2022/06/15 10:14:25;;;;;;;8.63;4.80;;;;;;;23.29;57.55;100309.53;5031664;28;20785;-62
2022/06/15 10:17:04;;;;;;;10.40;5.20;;;;;;;23.28;57.53;100307.88;5033037;28;20419;-62
2022/06/15 10:19:33;;;;;;;7.40;4.60;;;;;;;23.28;57.63;100305.00;5032674;28;20463;-62
2022/06/15 10:22:02;;;;;;;6.87;4.30;;;;;;;23.29;57.37;100305.84;5014838;28;20427;-62
2022/06/15 10:24:29;;;;;;;7.17;4.53;;;;;;;23.28;57.40;100302.13;5032445;28;20502;-61
2022/06/15 10:27:26;;;;;;;7.50;4.20;;;;;;;23.28;57.50;100301.31;5045176;28;20431;-61
2022/06/15 10:30:08;;;;;;;8.30;4.50;;;;;;;23.28;57.42;100293.47;5033219;28;21060;-61
2022/06/15 10:32:36;;;;;;;8.27;4.27;;;;;;;23.28;57.44;100301.31;5032774;28;21033;-61
2022/06/15 10:35:17;;;;;;;7.60;4.30;;;;;;;23.28;57.27;100296.34;5032661;28;20952;-61
2022/06/15 10:37:54;;;;;;;10.43;4.40;;;;;;;23.30;57.50;100298.84;5032056;28;20423;-61
2022/06/15 10:40:31;;;;;;;6.40;3.90;;;;;;;23.29;57.31;100298.00;5044493;28;20956;-61
2022/06/15 10:43:23;;;;;;;6.30;4.60;;;;;;;23.29;57.52;100291.44;5051002;28;20418;-61
2022/06/15 10:46:00;;;;;;;6.00;4.73;;;;;;;23.29;57.39;100288.56;5051099;28;20816;-61
2022/06/15 10:48:30;;;;;;;7.10;4.53;;;;;;;23.30;57.47;100284.44;5052024;28;20422;-61
2022/06/15 10:51:06;;;;;;;9.50;4.60;;;;;;;23.30;57.08;100293.06;5047347;28;20947;-61
2022/06/15 10:53:43;;;;;;;6.70;4.40;;;;;;;23.30;57.34;100288.16;5043841;28;20797;-61
2022/06/15 11:02:22;;;;;;;6.30;4.17;;;;;;;23.31;57.56;100283.19;5051795;28;20437;-61
2022/06/15 11:04:47;;;;;;;6.57;4.27;;;;;;;23.29;57.50;100292.25;5051118;28;20411;-61
2022/06/15 11:07:25;;;;;;;8.23;5.20;;;;;;;23.32;57.08;100279.06;5051957;28;20461;-61
2022/06/15 11:09:54;;;;;;;4.80;3.60;;;;;;;23.31;57.14;100275.38;4579769;28;20215;-62
2022/06/15 11:12:46;;;;;;;7.80;4.40;;;;;;;23.31;57.28;100275.38;5050273;28;20446;-62
2022/06/15 11:15:19;;;;;;;6.83;4.60;;;;;;;23.31;56.89;100271.66;5035612;28;20921;-62
2022/06/15 11:18:03;;;;;;;6.33;3.33;;;;;;;23.31;57.13;100275.38;5051513;28;20476;-62
2022/06/15 11:20:51;;;;;;;10.57;5.07;;;;;;;23.30;56.84;100270.03;5050544;28;20492;-62
2022/06/15 11:23:43;;;;;;;6.43;4.03;;;;;;;23.32;56.83;100277.00;5038190;28;20431;-62
2022/06/15 11:29:41;;;;;;;9.67;4.33;;;;;;;23.32;56.20;100271.25;5069872;28;20425;-62
2022/06/15 11:32:29;;;;;;;6.97;4.43;;;;;;;23.32;55.76;100268.38;5071077;28;20499;-62
2022/06/15 11:35:06;;;;;;;5.40;4.03;;;;;;;23.33;56.03;100270.00;5070423;28;20422;-62
2022/06/15 11:37:39;;;;;;;6.40;4.30;;;;;;;23.32;55.97;100271.25;5071277;28;20843;-62
2022/06/15 11:40:26;;;;;;;6.73;3.70;;;;;;;23.34;55.79;100262.19;5069944;28;20483;-62
2022/06/15 11:42:53;;;;;;;8.00;3.90;;;;;;;23.33;55.65;100257.69;5040240;28;20466;-62
2022/06/15 11:45:20;;;;;;;8.20;4.00;;;;;;;23.35;55.38;100267.56;5029988;28;20455;-62
2022/06/15 11:47:52;;;;;;;7.70;4.30;;;;;;;23.33;54.95;100264.25;5013606;28;20429;-62
2022/06/15 11:50:20;;;;;;;8.70;3.93;;;;;;;23.34;55.36;100265.09;5031816;28;20456;-62
2022/06/15 11:53:17;;;;;;;4.03;3.07;;;;;;;23.34;55.50;100259.31;5043693;28;20565;-61
2022/06/15 11:55:45;;;;;;;7.63;3.87;;;;;;;23.32;55.41;100262.59;5031307;28;20403;-62
2022/06/15 11:58:25;;;;;;;7.23;3.93;;;;;;;23.32;55.43;100264.66;5031145;28;20426;-62